createdAt,value
2023-11-02T00:01:55.474Z,7.89
2023-11-02T00:04:29.743Z,7.89
2023-11-02T00:06:58.657Z,7.90
2023-11-02T00:09:35.729Z,7.90
2023-11-02T00:12:13.477Z,7.90
2023-11-02T00:14:52.399Z,7.90
2023-11-02T00:17:36.484Z,7.90
2023-11-02T00:20:08.207Z,7.91
2023-11-02T00:22:45.145Z,7.92
2023-11-02T00:25:45.314Z,7.93
2023-11-02T00:28:13.578Z,7.92
2023-11-02T00:30:47.273Z,7.90
2023-11-02T00:33:24.281Z,7.89
2023-11-02T00:35:53.887Z,7.89
2023-11-02T00:38:28.785Z,7.88
2023-11-02T00:40:58.814Z,7.87
2023-11-02T00:43:30.566Z,7.86
2023-11-02T00:45:59.229Z,7.86
2023-11-02T00:48:33.336Z,7.86
2023-11-02T00:51:25.871Z,7.84
2023-11-02T00:54:01.760Z,7.84
2023-11-02T00:56:40.018Z,7.83
2023-11-02T00:59:18.817Z,7.83
2023-11-02T01:01:49.261Z,7.83
2023-11-02T01:04:49.321Z,7.82
2023-11-02T01:07:17.580Z,7.82
2023-11-02T01:09:48.770Z,7.80
2023-11-02T01:28:07.904Z,7.55
2023-11-02T01:30:36.238Z,7.49
2023-11-02T01:33:36.172Z,7.47
2023-11-02T01:36:08.063Z,7.46
2023-11-02T01:38:36.437Z,7.45
2023-11-02T01:41:23.230Z,7.45
2023-11-02T01:44:14.315Z,7.45
2023-11-02T01:47:11.819Z,7.45
2023-11-02T01:50:07.661Z,7.45
2023-11-02T01:52:37.945Z,7.43
2023-11-02T01:55:27.080Z,7.43
2023-11-02T01:58:06.579Z,7.40
2023-11-02T02:00:51.807Z,7.39
2023-11-02T02:03:43.209Z,7.40
2023-11-02T02:06:33.174Z,7.42
2023-11-02T02:09:33.595Z,7.42
2023-11-02T02:12:31.448Z,7.42
2023-11-02T02:15:12.547Z,7.42
2023-11-02T02:18:02.106Z,7.43
2023-11-02T02:20:36.468Z,7.44
2023-11-02T02:23:09.410Z,7.44
2023-11-02T02:25:59.423Z,7.44
2023-11-02T02:28:55.570Z,7.45
2023-11-02T02:32:02.164Z,7.44
2023-11-02T02:34:45.734Z,7.42
2023-11-02T02:37:39.448Z,7.43
2023-11-02T02:40:09.505Z,7.42
2023-11-02T02:42:38.856Z,7.42
2023-11-02T02:45:16.204Z,7.41
2023-11-02T02:47:46.435Z,7.41
2023-11-02T02:50:19.523Z,7.40
2023-11-02T02:52:50.642Z,7.40
2023-11-02T02:55:22.681Z,7.38
2023-11-02T02:57:54.837Z,7.38
2023-11-02T03:00:29.772Z,7.37
2023-11-02T03:03:00.183Z,7.36
2023-11-02T03:05:30.307Z,7.36
2023-11-02T03:08:10.306Z,7.35
2023-11-02T03:10:40.257Z,7.34
2023-11-02T03:13:15.512Z,7.34
2023-11-02T03:15:47.493Z,7.33
2023-11-02T03:18:15.480Z,7.30
2023-11-02T03:20:44.172Z,7.30
2023-11-02T03:23:23.510Z,7.29
2023-11-02T03:26:11.048Z,7.29
2023-11-02T03:29:02.511Z,7.29
2023-11-02T03:31:42.460Z,7.28
2023-11-02T03:34:19.198Z,7.27
2023-11-02T03:37:00.427Z,7.26
2023-11-02T03:39:37.516Z,7.25
2023-11-02T03:42:18.192Z,7.23
2023-11-02T03:45:03.418Z,7.21
2023-11-02T03:47:58.691Z,7.19
2023-11-02T03:51:05.721Z,7.18
2023-11-02T03:53:47.435Z,7.16
2023-11-02T03:56:35.082Z,7.15
2023-11-02T03:59:13.045Z,7.15
2023-11-02T04:02:00.434Z,7.14
2023-11-02T04:04:40.574Z,7.14
2023-11-02T04:07:23.401Z,7.13
2023-11-02T04:10:00.271Z,7.13
2023-11-02T04:12:33.395Z,7.13
2023-11-02T04:15:02.882Z,7.13
2023-11-02T04:17:31.315Z,7.13
2023-11-02T04:20:05.629Z,7.12
2023-11-02T04:22:35.815Z,7.12
2023-11-02T04:25:07.242Z,7.10
2023-11-02T04:27:35.606Z,7.08
2023-11-02T04:30:03.864Z,7.07
2023-11-02T04:32:33.016Z,7.04
2023-11-02T04:35:03.575Z,7.03
2023-11-02T04:37:31.622Z,7.02
2023-11-02T04:39:59.509Z,7.01
2023-11-02T04:42:27.327Z,7.01
2023-11-02T04:45:00.620Z,6.98
2023-11-02T04:47:29.218Z,6.98
2023-11-02T04:49:58.231Z,6.96
2023-11-02T04:52:35.245Z,6.94
2023-11-02T04:55:06.363Z,6.93
2023-11-02T04:57:36.639Z,6.93
2023-11-02T05:00:05.577Z,6.93
2023-11-02T05:02:36.262Z,6.91
2023-11-02T05:05:04.457Z,6.90
2023-11-02T05:07:32.456Z,6.90
2023-11-02T05:10:00.580Z,6.90
2023-11-02T05:12:28.869Z,6.88
2023-11-02T05:14:59.361Z,6.87
2023-11-02T05:17:29.981Z,6.85
2023-11-02T05:19:58.548Z,6.84
2023-11-02T05:22:28.940Z,6.84
2023-11-02T05:24:58.749Z,6.83
2023-11-02T05:27:26.941Z,6.83
2023-11-02T05:29:57.194Z,6.83
2023-11-02T05:32:27.891Z,6.80
2023-11-02T05:34:55.862Z,6.79
2023-11-02T05:37:26.328Z,6.77
2023-11-02T05:39:55.797Z,6.76
2023-11-02T05:42:24.426Z,6.76
2023-11-02T05:44:52.438Z,6.74
2023-11-02T05:47:20.598Z,6.71
2023-11-02T05:49:53.149Z,6.72
2023-11-02T05:52:26.692Z,6.72
2023-11-02T05:54:59.475Z,6.73
2023-11-02T05:57:30.314Z,6.75
2023-11-02T06:00:00.057Z,6.77
2023-11-02T06:02:34.873Z,6.79
2023-11-02T06:05:09.321Z,6.80
2023-11-02T06:07:37.966Z,6.81
2023-11-02T06:10:10.165Z,6.83
2023-11-02T06:12:43.447Z,6.86
2023-11-02T06:15:12.419Z,6.89
2023-11-02T06:17:43.274Z,6.91
2023-11-02T06:20:44.371Z,6.95
2023-11-02T06:23:14.933Z,6.98
2023-11-02T06:25:46.081Z,7.01
2023-11-02T06:28:19.479Z,7.04
2023-11-02T06:30:47.660Z,7.07
2023-11-02T06:33:48.735Z,7.09
2023-11-02T06:36:16.949Z,7.12
2023-11-02T06:38:47.290Z,7.14
2023-11-02T06:41:19.941Z,7.17
2023-11-02T06:43:48.161Z,7.20
2023-11-02T06:46:16.318Z,7.20
2023-11-02T06:48:44.979Z,7.23
2023-11-02T06:51:13.075Z,7.26
2023-11-02T06:53:43.261Z,7.29
2023-11-02T06:56:11.201Z,7.32
2023-11-02T06:58:39.475Z,7.34
2023-11-02T07:01:07.805Z,7.37
2023-11-02T07:03:35.771Z,7.42
2023-11-02T07:06:07.327Z,7.45
2023-11-02T07:08:37.863Z,7.49
2023-11-02T07:11:08.531Z,7.52
2023-11-02T07:13:36.536Z,7.54
2023-11-02T07:16:07.672Z,7.55
2023-11-02T07:18:40.815Z,7.60
2023-11-02T07:21:11.583Z,7.63
2023-11-02T07:23:41.956Z,7.67
2023-11-02T07:26:10.040Z,7.70
2023-11-02T07:28:40.388Z,7.75
2023-11-02T07:31:08.695Z,7.79
2023-11-02T07:33:42.300Z,7.83
2023-11-02T07:36:23.513Z,7.87
2023-11-02T07:38:56.585Z,7.90
2023-11-02T07:41:27.082Z,7.95
2023-11-02T07:43:55.147Z,8.06
2023-11-02T07:46:23.245Z,8.11
2023-11-02T07:48:53.958Z,8.15
2023-11-02T07:51:24.071Z,8.15
2023-11-02T07:53:54.695Z,8.17
2023-11-02T07:56:25.415Z,8.19
2023-11-02T07:58:53.302Z,8.22
2023-11-02T08:01:25.395Z,8.26
2023-11-02T08:03:56.211Z,8.29
2023-11-02T08:06:24.605Z,8.34
2023-11-02T08:08:55.768Z,8.38
2023-11-02T08:11:23.830Z,8.42
2023-11-02T08:13:55.024Z,8.47
2023-11-02T08:16:23.250Z,8.53
2023-11-02T08:18:53.884Z,8.61
2023-11-02T08:21:26.929Z,8.68
2023-11-02T08:23:58.060Z,8.75
2023-11-02T08:26:28.696Z,8.81
2023-11-02T08:28:58.889Z,8.86
2023-11-02T08:31:30.589Z,8.92
2023-11-02T08:34:03.307Z,8.98
2023-11-02T08:36:33.206Z,9.04
2023-11-02T08:39:01.724Z,9.09
2023-11-02T08:41:35.295Z,9.14
2023-11-02T08:44:05.359Z,9.29
2023-11-02T08:46:38.084Z,9.45
2023-11-02T08:49:11.170Z,9.50
2023-11-02T08:51:45.938Z,9.54
2023-11-02T08:54:16.591Z,9.60
2023-11-02T08:56:51.537Z,9.64
2023-11-02T08:59:22.260Z,9.69
2023-11-02T09:01:54.038Z,9.74
2023-11-02T09:04:22.132Z,9.79
2023-11-02T09:06:53.245Z,9.87
2023-11-02T09:09:23.480Z,9.97
2023-11-02T09:11:51.802Z,10.10
2023-11-02T09:14:19.922Z,10.25
2023-11-02T09:16:48.446Z,10.39
2023-11-02T09:19:18.843Z,10.49
2023-11-02T09:21:48.541Z,10.59
2023-11-02T09:24:19.308Z,10.68
2023-11-02T09:26:49.750Z,10.74
2023-11-02T09:29:22.578Z,10.82
2023-11-02T09:32:02.068Z,10.88
2023-11-02T09:34:39.821Z,10.93
2023-11-02T09:37:11.449Z,10.96
2023-11-02T09:39:41.922Z,10.97
2023-11-02T09:42:09.893Z,11.01
2023-11-02T09:44:38.872Z,11.03
2023-11-02T09:47:12.376Z,11.06
2023-11-02T09:49:40.346Z,11.09
2023-11-02T09:52:14.251Z,11.13
2023-11-02T09:54:48.038Z,11.18
2023-11-02T09:57:18.659Z,11.23
2023-11-02T09:59:47.654Z,11.27
2023-11-02T10:02:18.689Z,11.32
2023-11-02T10:04:46.886Z,11.42
2023-11-02T10:07:15.499Z,11.60
2023-11-02T10:09:44.506Z,11.71
2023-11-02T10:12:13.046Z,11.82
2023-11-02T10:14:41.239Z,11.96
2023-11-02T10:17:12.961Z,12.04
2023-11-02T10:19:44.276Z,12.12
2023-11-02T10:22:14.920Z,12.22
2023-11-02T10:24:44.135Z,12.30
2023-11-02T10:27:12.485Z,12.33
2023-11-02T10:29:46.634Z,12.32
2023-11-02T10:32:17.247Z,12.32
2023-11-02T10:34:50.648Z,12.33
2023-11-02T10:37:37.354Z,12.35
2023-11-02T10:40:08.864Z,12.38
2023-11-02T10:42:44.090Z,12.40
2023-11-02T10:45:17.688Z,12.42
2023-11-02T10:47:47.772Z,12.45
2023-11-02T10:50:19.957Z,12.50
2023-11-02T10:52:58.490Z,12.54
2023-11-02T10:55:32.706Z,12.57
2023-11-02T10:58:05.132Z,12.61
2023-11-02T11:00:35.245Z,12.64
2023-11-02T11:03:10.899Z,12.66
2023-11-02T11:05:41.293Z,12.69
2023-11-02T11:08:14.328Z,12.71
2023-11-02T11:10:50.876Z,12.75
2023-11-02T11:13:19.498Z,12.81
2023-11-02T11:15:50.901Z,12.85
2023-11-02T11:18:19.257Z,12.88
2023-11-02T11:20:47.513Z,12.92
2023-11-02T11:23:19.161Z,12.97
2023-11-02T11:26:04.915Z,13.02
2023-11-02T11:28:39.956Z,13.19
2023-11-02T11:31:28.316Z,13.34
2023-11-02T11:33:57.374Z,13.58
2023-11-02T11:36:27.913Z,13.74
2023-11-02T11:38:57.829Z,13.90
2023-11-02T11:41:49.647Z,13.97
2023-11-02T11:44:27.679Z,14.02
2023-11-02T11:46:57.700Z,14.15
2023-11-02T11:49:35.127Z,14.18
2023-11-02T11:52:04.571Z,14.12
2023-11-02T11:54:34.737Z,14.06
2023-11-02T11:57:02.782Z,14.03
2023-11-02T12:00:01.031Z,14.01
2023-11-02T12:02:44.420Z,14.01
2023-11-02T12:05:13.254Z,14.00
2023-11-02T12:07:41.416Z,13.99
2023-11-02T12:10:13.212Z,13.96
2023-11-02T12:12:44.534Z,13.96
2023-11-02T12:15:21.659Z,13.95
2023-11-02T12:17:55.503Z,13.92
2023-11-02T12:20:35.563Z,13.90
2023-11-02T12:23:05.927Z,13.88
2023-11-02T12:25:36.432Z,13.86
2023-11-02T12:28:08.019Z,13.84
2023-11-02T12:30:42.638Z,13.81
2023-11-02T12:33:11.213Z,13.82
2023-11-02T12:35:42.124Z,13.90
2023-11-02T12:38:13.320Z,13.94
2023-11-02T12:40:55.016Z,13.95
2023-11-02T12:43:25.516Z,13.95
2023-11-02T12:46:05.364Z,13.93
2023-11-02T12:48:35.148Z,13.96
2023-11-02T12:51:42.867Z,14.06
2023-11-02T12:54:18.602Z,14.17
2023-11-02T12:56:55.581Z,14.21
2023-11-02T12:59:27.886Z,14.19
2023-11-02T13:02:03.830Z,14.13
2023-11-02T13:04:48.107Z,14.09
2023-11-02T13:07:34.631Z,14.10
2023-11-02T13:10:11.286Z,14.11
2023-11-02T13:28:09.810Z,13.74
2023-11-02T13:30:40.740Z,13.67
2023-11-02T13:33:10.153Z,13.63
2023-11-02T13:35:38.337Z,13.60
2023-11-02T13:38:06.981Z,13.59
2023-11-02T13:40:34.973Z,13.59
2023-11-02T13:43:03.403Z,13.58
2023-11-02T13:45:32.857Z,13.57
2023-11-02T13:48:01.544Z,13.59
2023-11-02T13:50:30.239Z,13.62
2023-11-02T13:53:02.100Z,13.61
2023-11-02T13:55:34.331Z,13.60
2023-11-02T13:58:04.942Z,13.63
2023-11-02T14:00:33.416Z,13.62
2023-11-02T14:03:07.168Z,13.60
2023-11-02T14:05:45.724Z,13.58
2023-11-02T14:08:13.846Z,13.58
2023-11-02T14:10:44.363Z,13.57
2023-11-02T14:13:14.830Z,13.54
2023-11-02T14:15:45.712Z,13.53
2023-11-02T14:18:13.720Z,13.51
2023-11-02T14:20:45.265Z,13.49
2023-11-02T14:23:17.995Z,13.47
2023-11-02T14:25:49.557Z,13.45
2023-11-02T14:28:18.012Z,13.44
2023-11-02T14:30:49.164Z,13.43
2023-11-02T14:33:17.768Z,13.41
2023-11-02T14:35:46.108Z,13.39
2023-11-02T14:38:40.406Z,13.38
2023-11-02T14:41:09.244Z,13.36
2023-11-02T14:43:39.421Z,13.34
2023-11-02T14:46:10.619Z,13.32
2023-11-02T14:48:39.308Z,13.30
2023-11-02T14:51:08.402Z,13.28
2023-11-02T14:53:39.225Z,13.26
2023-11-02T14:56:07.877Z,13.25
2023-11-02T14:58:40.974Z,13.23
2023-11-02T15:01:13.942Z,13.21
2023-11-02T15:03:45.023Z,13.19
2023-11-02T15:06:20.210Z,13.17
2023-11-02T15:08:57.912Z,13.16
2023-11-02T15:11:34.305Z,13.13
2023-11-02T15:14:03.063Z,13.12
2023-11-02T15:16:33.281Z,13.11
2023-11-02T15:19:01.389Z,13.10
2023-11-02T15:21:29.619Z,13.07
2023-11-02T15:23:57.620Z,13.05
2023-11-02T15:26:25.568Z,13.03
2023-11-02T15:28:58.058Z,13.01
2023-11-02T15:31:27.106Z,12.97
2023-11-02T15:33:57.048Z,12.95
2023-11-02T15:36:27.763Z,12.92
2023-11-02T15:38:56.081Z,12.91
2023-11-02T15:41:27.143Z,12.89
2023-11-02T15:43:57.605Z,12.87
2023-11-02T15:46:26.158Z,12.83
2023-11-02T15:48:57.155Z,12.82
2023-11-02T15:51:26.182Z,12.78
2023-11-02T15:53:54.429Z,12.75
2023-11-02T15:56:25.351Z,12.73
2023-11-02T15:58:53.538Z,12.71
2023-11-02T16:01:29.458Z,12.68
2023-11-02T16:03:58.527Z,12.67
2023-11-02T16:06:26.963Z,12.64
2023-11-02T16:08:58.122Z,12.61
2023-11-02T16:11:28.799Z,12.59
2023-11-02T16:14:03.948Z,12.59
2023-11-02T16:16:34.966Z,12.69
2023-11-02T16:19:06.066Z,12.77
2023-11-02T16:21:33.977Z,12.81
2023-11-02T16:24:05.374Z,12.84
2023-11-02T16:26:38.993Z,12.86
2023-11-02T16:29:07.370Z,12.88
2023-11-02T16:31:37.821Z,12.87
2023-11-02T16:34:06.396Z,12.91
2023-11-02T16:36:51.160Z,12.98
2023-11-02T16:39:20.900Z,13.03
2023-11-02T16:41:53.902Z,13.03
2023-11-02T16:44:25.360Z,13.06
2023-11-02T16:47:00.429Z,13.07
2023-11-02T16:49:31.185Z,13.08
2023-11-02T16:52:00.553Z,13.11
2023-11-02T16:54:30.877Z,13.04
2023-11-02T16:57:01.192Z,12.93
2023-11-02T16:59:29.530Z,12.82
2023-11-02T17:01:57.732Z,12.72
2023-11-02T17:04:30.256Z,12.64
2023-11-02T17:06:59.485Z,12.57
2023-11-02T17:09:29.902Z,12.52
2023-11-02T17:12:00.404Z,12.47
2023-11-02T17:14:30.711Z,12.43
2023-11-02T17:16:58.730Z,12.38
2023-11-02T17:19:29.940Z,12.34
2023-11-02T17:22:00.571Z,12.30
2023-11-02T17:24:29.465Z,12.26
2023-11-02T17:27:00.193Z,12.24
2023-11-02T17:29:28.843Z,12.20
2023-11-02T17:31:57.259Z,12.18
2023-11-02T17:34:30.511Z,12.15
2023-11-02T17:37:03.312Z,12.13
2023-11-02T17:39:31.588Z,12.10
2023-11-02T17:41:59.521Z,12.09
2023-11-02T17:44:30.317Z,12.07
2023-11-02T17:47:01.252Z,12.04
2023-11-02T17:49:29.356Z,12.00
2023-11-02T17:52:07.185Z,11.99
2023-11-02T17:54:35.945Z,11.96
2023-11-02T17:57:04.725Z,11.94
2023-11-02T17:59:38.205Z,11.93
2023-11-02T18:02:08.883Z,11.91
2023-11-02T18:04:39.316Z,11.89
2023-11-02T18:07:12.209Z,11.88
2023-11-02T18:09:41.717Z,11.87
2023-11-02T18:12:10.124Z,11.87
2023-11-02T18:14:38.045Z,11.86
2023-11-02T18:17:05.933Z,11.85
2023-11-02T18:19:34.066Z,11.84
2023-11-02T18:22:02.911Z,11.84
2023-11-02T18:24:31.124Z,11.83
2023-11-02T18:27:04.246Z,11.82
2023-11-02T18:29:32.624Z,11.82
2023-11-02T18:32:00.700Z,11.82
2023-11-02T18:34:30.879Z,11.82
2023-11-02T18:37:01.339Z,11.81
2023-11-02T18:39:29.422Z,11.80
2023-11-02T18:41:57.559Z,11.81
2023-11-02T18:44:25.658Z,11.81
2023-11-02T18:46:56.600Z,11.81
2023-11-02T18:49:27.084Z,11.80
2023-11-02T18:51:55.208Z,11.79
2023-11-02T18:54:24.458Z,11.78
2023-11-02T18:56:54.470Z,11.77
2023-11-02T18:59:22.387Z,11.75
2023-11-02T19:01:53.955Z,11.74
2023-11-02T19:04:24.205Z,11.73
2023-11-02T19:06:53.101Z,11.71
2023-11-02T19:09:23.565Z,11.69
2023-11-02T19:11:53.897Z,11.68
2023-11-02T19:14:24.000Z,11.67
2023-11-02T19:16:51.989Z,11.66
2023-11-02T19:19:20.237Z,11.66
2023-11-02T19:21:52.976Z,11.65
2023-11-02T19:24:30.215Z,11.64
2023-11-02T19:26:58.392Z,11.63
2023-11-02T19:29:26.569Z,11.61
2023-11-02T19:31:59.141Z,11.59
2023-11-02T19:34:28.462Z,11.59
2023-11-02T19:36:56.685Z,11.57
2023-11-02T19:39:29.436Z,11.56
2023-11-02T19:42:01.211Z,11.55
2023-11-02T19:44:29.176Z,11.54
2023-11-02T19:47:00.261Z,11.54
2023-11-02T19:49:28.444Z,11.54
2023-11-02T19:51:56.610Z,11.54
2023-11-02T19:54:24.585Z,11.53
2023-11-02T19:56:55.506Z,11.53
2023-11-02T19:59:26.078Z,11.54
2023-11-02T20:01:54.105Z,11.54
2023-11-02T20:04:23.070Z,11.54
2023-11-02T20:06:51.796Z,11.54
2023-11-02T20:09:19.729Z,11.55
2023-11-02T20:11:50.779Z,11.56
2023-11-02T20:14:19.147Z,11.55
2023-11-02T20:16:50.494Z,11.56
2023-11-02T20:19:18.520Z,11.57
2023-11-02T20:21:51.492Z,11.57
2023-11-02T20:24:22.321Z,11.57
2023-11-02T20:26:50.485Z,11.56
2023-11-02T20:29:18.610Z,11.57
2023-11-02T20:31:46.698Z,11.57
2023-11-02T20:34:19.610Z,11.57
2023-11-02T20:36:52.947Z,11.57
2023-11-02T20:39:21.178Z,11.58
2023-11-02T20:41:56.431Z,11.59
2023-11-02T20:44:25.337Z,11.59
2023-11-02T20:46:56.638Z,11.59
2023-11-02T20:49:25.426Z,11.59
2023-11-02T20:51:53.696Z,11.60
2023-11-02T20:54:21.602Z,11.60
2023-11-02T20:56:49.751Z,11.62
2023-11-02T20:59:19.912Z,11.62
2023-11-02T21:01:47.811Z,11.64
2023-11-02T21:04:18.392Z,11.63
2023-11-02T21:06:54.887Z,11.65
2023-11-02T21:09:31.203Z,11.66
2023-11-02T21:12:00.730Z,11.67
2023-11-02T21:14:29.902Z,11.68
2023-11-02T21:17:03.163Z,11.68
2023-11-02T21:19:31.230Z,11.68
2023-11-02T21:22:01.539Z,11.69
2023-11-02T21:24:40.748Z,11.69
2023-11-02T21:27:08.948Z,11.69
2023-11-02T21:29:42.610Z,11.69
2023-11-02T21:32:12.909Z,11.70
2023-11-02T21:34:45.260Z,11.71
2023-11-02T21:37:15.674Z,11.72
2023-11-02T21:39:43.970Z,11.72
2023-11-02T21:42:12.735Z,11.72
2023-11-02T21:44:43.736Z,11.74
2023-11-02T21:47:14.416Z,11.74
2023-11-02T21:49:44.506Z,11.75
2023-11-02T21:52:14.892Z,11.76
2023-11-02T21:54:42.791Z,11.75
2023-11-02T21:57:10.933Z,11.76
2023-11-02T21:59:41.731Z,11.76
2023-11-02T22:02:09.860Z,11.78
2023-11-02T22:04:41.097Z,11.79
2023-11-02T22:07:14.160Z,11.79
2023-11-02T22:09:44.410Z,11.79
2023-11-02T22:12:12.338Z,11.79
2023-11-02T22:14:40.851Z,11.80
2023-11-02T22:17:08.974Z,11.81
2023-11-02T22:19:43.857Z,11.83
2023-11-02T22:22:15.848Z,11.83
2023-11-02T22:24:46.258Z,11.84
2023-11-02T22:27:14.338Z,11.84
2023-11-02T22:29:42.412Z,11.85
2023-11-02T22:32:14.087Z,11.86
2023-11-02T22:34:43.103Z,11.85
2023-11-02T22:37:14.752Z,11.85
2023-11-02T22:39:43.228Z,11.84
2023-11-02T22:42:11.892Z,11.84
2023-11-02T22:44:41.107Z,11.84
2023-11-02T22:47:09.059Z,11.84
2023-11-02T22:49:40.246Z,11.85
2023-11-02T22:52:11.087Z,11.86
2023-11-02T22:54:39.997Z,11.86
2023-11-02T22:57:10.229Z,11.86
2023-11-02T22:59:41.059Z,11.87
2023-11-02T23:02:09.970Z,11.86
2023-11-02T23:04:40.639Z,11.87
2023-11-02T23:07:11.636Z,11.87
2023-11-02T23:09:39.652Z,11.87
2023-11-02T23:12:08.013Z,11.88
2023-11-02T23:14:36.035Z,11.89
2023-11-02T23:17:03.882Z,11.89
2023-11-02T23:19:31.760Z,11.89
2023-11-02T23:22:06.028Z,11.89
2023-11-02T23:24:39.316Z,11.89
2023-11-02T23:27:12.333Z,11.89
2023-11-02T23:29:42.689Z,11.89
2023-11-02T23:32:10.709Z,11.89
2023-11-02T23:34:38.964Z,11.88
2023-11-02T23:42:16.720Z,11.78
2023-11-02T23:45:40.752Z,11.73
2023-11-02T23:48:11.112Z,11.69
2023-11-02T23:50:42.570Z,11.65
2023-11-02T23:53:12.526Z,11.62
2023-11-02T23:55:41.123Z,11.60
2023-11-02T23:58:11.840Z,11.58
